sensor_id;sensor_type;location;lat;lon;timestamp;P1;durP1;ratioP1;P2;durP2;ratioP2
7215;SDS011;3649;48.798;9.798;2022-12-20T00:01:24;41.60;;;26.57;;
7215;SDS011;3649;48.798;9.798;2022-12-20T00:03:53;40.10;;;24.37;;
7215;SDS011;3649;48.798;9.798;2022-12-20T00:06:21;41.57;;;27.57;;
7215;SDS011;3649;48.798;9.798;2022-12-20T00:08:54;42.87;;;27.07;;
7215;SDS011;3649;48.798;9.798;2022-12-20T00:11:22;38.47;;;25.87;;
7215;SDS011;3649;48.798;9.798;2022-12-20T00:13:50;40.73;;;26.93;;
7215;SDS011;3649;48.798;9.798;2022-12-20T00:16:18;48.43;;;26.90;;
7215;SDS011;3649;48.798;9.798;2022-12-20T00:18:49;41.27;;;27.00;;
7215;SDS011;3649;48.798;9.798;2022-12-20T00:21:17;43.53;;;27.30;;
7215;SDS011;3649;48.798;9.798;2022-12-20T00:23:45;45.70;;;28.43;;
7215;SDS011;3649;48.798;9.798;2022-12-20T00:26:13;40.30;;;25.90;;
7215;SDS011;3649;48.798;9.798;2022-12-20T00:28:45;43.67;;;26.87;;
7215;SDS011;3649;48.798;9.798;2022-12-20T00:31:13;39.23;;;26.67;;
7215;SDS011;3649;48.798;9.798;2022-12-20T00:33:43;43.90;;;27.87;;
7215;SDS011;3649;48.798;9.798;2022-12-20T00:36:11;45.73;;;27.80;;
7215;SDS011;3649;48.798;9.798;2022-12-20T00:38:39;44.70;;;27.40;;
7215;SDS011;3649;48.798;9.798;2022-12-20T00:41:13;47.83;;;29.40;;
7215;SDS011;3649;48.798;9.798;2022-12-20T00:43:42;43.57;;;29.30;;
7215;SDS011;3649;48.798;9.798;2022-12-20T00:46:09;42.17;;;27.30;;
7215;SDS011;3649;48.798;9.798;2022-12-20T00:48:37;35.90;;;24.57;;
7215;SDS011;3649;48.798;9.798;2022-12-20T00:51:06;39.73;;;25.30;;
7215;SDS011;3649;48.798;9.798;2022-12-20T00:53:34;39.43;;;25.47;;
7215;SDS011;3649;48.798;9.798;2022-12-20T00:56:02;42.60;;;26.63;;
7215;SDS011;3649;48.798;9.798;2022-12-20T00:58:31;59.80;;;31.30;;
7215;SDS011;3649;48.798;9.798;2022-12-20T01:00:58;48.73;;;26.97;;
7215;SDS011;3649;48.798;9.798;2022-12-20T01:03:26;40.20;;;25.70;;
7215;SDS011;3649;48.798;9.798;2022-12-20T01:05:54;43.93;;;25.93;;
7215;SDS011;3649;48.798;9.798;2022-12-20T01:08:23;43.37;;;26.60;;
7215;SDS011;3649;48.798;9.798;2022-12-20T01:13:52;39.13;;;25.93;;
7215;SDS011;3649;48.798;9.798;2022-12-20T01:16:22;43.50;;;26.67;;
7215;SDS011;3649;48.798;9.798;2022-12-20T01:18:52;37.23;;;23.63;;
7215;SDS011;3649;48.798;9.798;2022-12-20T01:21:19;42.37;;;26.47;;
7215;SDS011;3649;48.798;9.798;2022-12-20T01:23:48;41.93;;;26.73;;
7215;SDS011;3649;48.798;9.798;2022-12-20T01:26:16;44.27;;;25.40;;
7215;SDS011;3649;48.798;9.798;2022-12-20T01:28:46;45.73;;;26.20;;
7215;SDS011;3649;48.798;9.798;2022-12-20T01:31:14;39.17;;;24.67;;
7215;SDS011;3649;48.798;9.798;2022-12-20T01:33:43;36.70;;;23.30;;
7215;SDS011;3649;48.798;9.798;2022-12-20T01:36:15;37.00;;;24.40;;
7215;SDS011;3649;48.798;9.798;2022-12-20T01:38:44;34.13;;;23.03;;
7215;SDS011;3649;48.798;9.798;2022-12-20T01:41:18;39.00;;;24.47;;
7215;SDS011;3649;48.798;9.798;2022-12-20T01:43:54;37.30;;;24.10;;
7215;SDS011;3649;48.798;9.798;2022-12-20T01:46:28;38.73;;;24.50;;
7215;SDS011;3649;48.798;9.798;2022-12-20T01:49:04;41.07;;;26.10;;
7215;SDS011;3649;48.798;9.798;2022-12-20T01:51:42;38.47;;;25.67;;
7215;SDS011;3649;48.798;9.798;2022-12-20T01:56:48;30.00;;;19.73;;
7215;SDS011;3649;48.798;9.798;2022-12-20T01:59:20;32.57;;;21.30;;
7215;SDS011;3649;48.798;9.798;2022-12-20T02:01:47;28.37;;;18.80;;
7215;SDS011;3649;48.798;9.798;2022-12-20T02:04:14;32.10;;;20.10;;
7215;SDS011;3649;48.798;9.798;2022-12-20T02:06:41;28.03;;;18.93;;
7215;SDS011;3649;48.798;9.798;2022-12-20T02:09:08;28.80;;;20.53;;
7215;SDS011;3649;48.798;9.798;2022-12-20T02:31:38;30.67;;;18.90;;
7215;SDS011;3649;48.798;9.798;2022-12-20T02:34:09;31.07;;;20.23;;
7215;SDS011;3649;48.798;9.798;2022-12-20T02:36:37;32.03;;;18.67;;
7215;SDS011;3649;48.798;9.798;2022-12-20T02:39:04;30.87;;;18.87;;
7215;SDS011;3649;48.798;9.798;2022-12-20T02:41:38;32.40;;;19.80;;
7215;SDS011;3649;48.798;9.798;2022-12-20T02:44:11;28.97;;;19.47;;
7215;SDS011;3649;48.798;9.798;2022-12-20T02:46:59;29.23;;;19.77;;
7215;SDS011;3649;48.798;9.798;2022-12-20T02:49:31;26.33;;;18.37;;
7215;SDS011;3649;48.798;9.798;2022-12-20T02:52:03;25.33;;;16.67;;
7215;SDS011;3649;48.798;9.798;2022-12-20T02:54:31;30.10;;;18.20;;
7215;SDS011;3649;48.798;9.798;2022-12-20T02:59:56;26.73;;;17.87;;
7215;SDS011;3649;48.798;9.798;2022-12-20T03:02:35;24.77;;;17.37;;
7215;SDS011;3649;48.798;9.798;2022-12-20T03:05:22;30.37;;;19.77;;
7215;SDS011;3649;48.798;9.798;2022-12-20T03:07:51;32.43;;;20.77;;
7215;SDS011;3649;48.798;9.798;2022-12-20T03:10:18;32.70;;;21.27;;
7215;SDS011;3649;48.798;9.798;2022-12-20T03:12:46;36.63;;;21.07;;
7215;SDS011;3649;48.798;9.798;2022-12-20T03:15:13;29.90;;;19.20;;
7215;SDS011;3649;48.798;9.798;2022-12-20T03:17:40;31.83;;;22.00;;
7215;SDS011;3649;48.798;9.798;2022-12-20T03:20:07;29.33;;;20.47;;
7215;SDS011;3649;48.798;9.798;2022-12-20T03:22:36;34.83;;;23.63;;
7215;SDS011;3649;48.798;9.798;2022-12-20T03:25:04;33.67;;;22.00;;
7215;SDS011;3649;48.798;9.798;2022-12-20T03:27:31;35.60;;;23.27;;
7215;SDS011;3649;48.798;9.798;2022-12-20T03:29:58;39.07;;;24.37;;
7215;SDS011;3649;48.798;9.798;2022-12-20T03:32:25;33.90;;;22.90;;
7215;SDS011;3649;48.798;9.798;2022-12-20T03:34:52;31.40;;;22.80;;
7215;SDS011;3649;48.798;9.798;2022-12-20T03:37:18;34.73;;;23.27;;
7215;SDS011;3649;48.798;9.798;2022-12-20T03:39:45;33.17;;;22.40;;
7215;SDS011;3649;48.798;9.798;2022-12-20T03:42:12;33.13;;;22.87;;
7215;SDS011;3649;48.798;9.798;2022-12-20T03:44:39;35.93;;;24.60;;
7215;SDS011;3649;48.798;9.798;2022-12-20T03:47:06;32.73;;;23.03;;
7215;SDS011;3649;48.798;9.798;2022-12-20T03:49:32;31.47;;;22.10;;
7215;SDS011;3649;48.798;9.798;2022-12-20T03:51:59;26.83;;;18.77;;
7215;SDS011;3649;48.798;9.798;2022-12-20T03:54:26;26.40;;;18.40;;
7215;SDS011;3649;48.798;9.798;2022-12-20T03:56:53;26.77;;;18.10;;
7215;SDS011;3649;48.798;9.798;2022-12-20T03:59:19;30.60;;;19.30;;
7215;SDS011;3649;48.798;9.798;2022-12-20T04:01:46;27.47;;;19.13;;
7215;SDS011;3649;48.798;9.798;2022-12-20T04:04:14;28.20;;;18.87;;
7215;SDS011;3649;48.798;9.798;2022-12-20T04:06:41;31.43;;;22.67;;
7215;SDS011;3649;48.798;9.798;2022-12-20T04:09:08;29.77;;;21.30;;
7215;SDS011;3649;48.798;9.798;2022-12-20T04:11:35;26.07;;;17.73;;
7215;SDS011;3649;48.798;9.798;2022-12-20T04:14:02;25.93;;;17.80;;
7215;SDS011;3649;48.798;9.798;2022-12-20T04:16:29;22.87;;;16.70;;
7215;SDS011;3649;48.798;9.798;2022-12-20T04:18:57;27.00;;;18.27;;
7215;SDS011;3649;48.798;9.798;2022-12-20T04:21:28;23.50;;;16.73;;
7215;SDS011;3649;48.798;9.798;2022-12-20T04:23:56;22.63;;;15.57;;
7215;SDS011;3649;48.798;9.798;2022-12-20T04:26:24;23.20;;;15.00;;
7215;SDS011;3649;48.798;9.798;2022-12-20T04:28:51;27.57;;;18.27;;
7215;SDS011;3649;48.798;9.798;2022-12-20T04:31:18;24.47;;;17.93;;
7215;SDS011;3649;48.798;9.798;2022-12-20T04:33:49;24.93;;;15.83;;
7215;SDS011;3649;48.798;9.798;2022-12-20T04:36:16;24.80;;;17.87;;
7215;SDS011;3649;48.798;9.798;2022-12-20T04:38:43;23.07;;;17.73;;
7215;SDS011;3649;48.798;9.798;2022-12-20T04:41:10;24.47;;;17.03;;
7215;SDS011;3649;48.798;9.798;2022-12-20T04:43:48;27.40;;;17.07;;
7215;SDS011;3649;48.798;9.798;2022-12-20T04:46:21;22.80;;;15.83;;
7215;SDS011;3649;48.798;9.798;2022-12-20T04:48:48;22.53;;;16.73;;
7215;SDS011;3649;48.798;9.798;2022-12-20T04:51:25;25.07;;;18.03;;
7215;SDS011;3649;48.798;9.798;2022-12-20T04:53:53;26.03;;;17.67;;
7215;SDS011;3649;48.798;9.798;2022-12-20T04:56:22;29.93;;;19.70;;
7215;SDS011;3649;48.798;9.798;2022-12-20T04:58:51;28.43;;;20.90;;
7215;SDS011;3649;48.798;9.798;2022-12-20T05:01:19;34.57;;;20.53;;
7215;SDS011;3649;48.798;9.798;2022-12-20T05:03:47;31.40;;;21.07;;
7215;SDS011;3649;48.798;9.798;2022-12-20T05:06:14;28.97;;;21.63;;
7215;SDS011;3649;48.798;9.798;2022-12-20T05:08:42;30.10;;;20.83;;
7215;SDS011;3649;48.798;9.798;2022-12-20T05:11:09;31.53;;;20.80;;
7215;SDS011;3649;48.798;9.798;2022-12-20T05:13:36;31.90;;;20.87;;
7215;SDS011;3649;48.798;9.798;2022-12-20T05:16:03;28.73;;;20.00;;
7215;SDS011;3649;48.798;9.798;2022-12-20T05:18:31;31.50;;;21.33;;
7215;SDS011;3649;48.798;9.798;2022-12-20T05:20:58;34.87;;;22.40;;
7215;SDS011;3649;48.798;9.798;2022-12-20T05:23:45;32.93;;;21.33;;
7215;SDS011;3649;48.798;9.798;2022-12-20T05:26:32;31.73;;;21.43;;
7215;SDS011;3649;48.798;9.798;2022-12-20T05:29:01;31.90;;;20.83;;
7215;SDS011;3649;48.798;9.798;2022-12-20T05:31:29;31.47;;;21.63;;
7215;SDS011;3649;48.798;9.798;2022-12-20T05:33:56;30.97;;;21.83;;
7215;SDS011;3649;48.798;9.798;2022-12-20T05:36:23;29.33;;;21.53;;
7215;SDS011;3649;48.798;9.798;2022-12-20T05:38:49;31.20;;;24.00;;
7215;SDS011;3649;48.798;9.798;2022-12-20T05:41:16;36.13;;;24.53;;
7215;SDS011;3649;48.798;9.798;2022-12-20T05:43:43;36.47;;;24.47;;
7215;SDS011;3649;48.798;9.798;2022-12-20T05:46:10;33.80;;;23.03;;
7215;SDS011;3649;48.798;9.798;2022-12-20T05:48:37;29.80;;;21.90;;
7215;SDS011;3649;48.798;9.798;2022-12-20T05:51:03;30.17;;;21.47;;
7215;SDS011;3649;48.798;9.798;2022-12-20T05:53:30;34.63;;;21.03;;
7215;SDS011;3649;48.798;9.798;2022-12-20T05:55:57;32.63;;;21.80;;
7215;SDS011;3649;48.798;9.798;2022-12-20T05:58:24;30.17;;;21.83;;
7215;SDS011;3649;48.798;9.798;2022-12-20T06:00:51;30.17;;;22.17;;
7215;SDS011;3649;48.798;9.798;2022-12-20T06:03:18;29.03;;;17.97;;
7215;SDS011;3649;48.798;9.798;2022-12-20T06:05:45;30.03;;;18.47;;
7215;SDS011;3649;48.798;9.798;2022-12-20T06:08:12;26.33;;;19.10;;
7215;SDS011;3649;48.798;9.798;2022-12-20T06:10:39;32.87;;;21.47;;
7215;SDS011;3649;48.798;9.798;2022-12-20T06:13:07;36.13;;;23.87;;
7215;SDS011;3649;48.798;9.798;2022-12-20T06:15:35;33.90;;;23.23;;
7215;SDS011;3649;48.798;9.798;2022-12-20T06:18:03;37.73;;;23.90;;
7215;SDS011;3649;48.798;9.798;2022-12-20T06:20:31;35.20;;;24.17;;
7215;SDS011;3649;48.798;9.798;2022-12-20T06:23:00;31.07;;;23.00;;
7215;SDS011;3649;48.798;9.798;2022-12-20T06:25:27;32.07;;;22.30;;
7215;SDS011;3649;48.798;9.798;2022-12-20T06:27:54;33.40;;;23.37;;
7215;SDS011;3649;48.798;9.798;2022-12-20T06:30:21;33.03;;;22.40;;
7215;SDS011;3649;48.798;9.798;2022-12-20T06:32:54;33.27;;;22.47;;
7215;SDS011;3649;48.798;9.798;2022-12-20T06:35:24;30.60;;;22.83;;
7215;SDS011;3649;48.798;9.798;2022-12-20T06:37:51;33.70;;;22.47;;
7215;SDS011;3649;48.798;9.798;2022-12-20T06:40:18;33.37;;;23.77;;
7215;SDS011;3649;48.798;9.798;2022-12-20T06:42:45;32.47;;;23.07;;
7215;SDS011;3649;48.798;9.798;2022-12-20T06:45:11;34.53;;;23.20;;
7215;SDS011;3649;48.798;9.798;2022-12-20T06:47:38;33.17;;;23.73;;
7215;SDS011;3649;48.798;9.798;2022-12-20T06:50:06;32.67;;;21.90;;
7215;SDS011;3649;48.798;9.798;2022-12-20T06:52:33;35.07;;;21.50;;
7215;SDS011;3649;48.798;9.798;2022-12-20T06:55:03;33.70;;;21.83;;
7215;SDS011;3649;48.798;9.798;2022-12-20T06:57:30;34.20;;;21.33;;
7215;SDS011;3649;48.798;9.798;2022-12-20T06:59:58;31.23;;;20.67;;
7215;SDS011;3649;48.798;9.798;2022-12-20T07:02:25;28.80;;;20.57;;
7215;SDS011;3649;48.798;9.798;2022-12-20T07:04:53;28.17;;;16.73;;
7215;SDS011;3649;48.798;9.798;2022-12-20T07:07:20;23.13;;;16.07;;
7215;SDS011;3649;48.798;9.798;2022-12-20T07:09:47;23.43;;;16.93;;
7215;SDS011;3649;48.798;9.798;2022-12-20T07:12:14;21.67;;;15.40;;
7215;SDS011;3649;48.798;9.798;2022-12-20T07:14:41;18.57;;;14.47;;
7215;SDS011;3649;48.798;9.798;2022-12-20T07:17:08;25.10;;;14.80;;
7215;SDS011;3649;48.798;9.798;2022-12-20T07:19:36;23.03;;;15.00;;
7215;SDS011;3649;48.798;9.798;2022-12-20T07:22:03;23.97;;;15.07;;
7215;SDS011;3649;48.798;9.798;2022-12-20T07:24:31;21.90;;;15.30;;
7215;SDS011;3649;48.798;9.798;2022-12-20T07:26:58;20.67;;;14.50;;
7215;SDS011;3649;48.798;9.798;2022-12-20T07:29:25;24.87;;;15.60;;
7215;SDS011;3649;48.798;9.798;2022-12-20T07:31:53;21.60;;;15.53;;
7215;SDS011;3649;48.798;9.798;2022-12-20T07:34:20;22.33;;;14.50;;
7215;SDS011;3649;48.798;9.798;2022-12-20T07:36:47;26.03;;;16.10;;
7215;SDS011;3649;48.798;9.798;2022-12-20T07:39:13;24.27;;;16.10;;
7215;SDS011;3649;48.798;9.798;2022-12-20T07:41:40;24.83;;;16.13;;
7215;SDS011;3649;48.798;9.798;2022-12-20T07:44:07;22.60;;;16.70;;
7215;SDS011;3649;48.798;9.798;2022-12-20T07:46:34;24.37;;;16.37;;
7215;SDS011;3649;48.798;9.798;2022-12-20T07:49:02;24.57;;;15.90;;
7215;SDS011;3649;48.798;9.798;2022-12-20T07:51:32;26.47;;;17.20;;
7215;SDS011;3649;48.798;9.798;2022-12-20T07:56:45;22.10;;;15.97;;
7215;SDS011;3649;48.798;9.798;2022-12-20T07:59:15;22.43;;;16.80;;
7215;SDS011;3649;48.798;9.798;2022-12-20T08:01:46;27.77;;;17.30;;
7215;SDS011;3649;48.798;9.798;2022-12-20T08:04:15;24.47;;;17.13;;
7215;SDS011;3649;48.798;9.798;2022-12-20T08:06:44;26.33;;;18.43;;
7215;SDS011;3649;48.798;9.798;2022-12-20T08:09:12;28.23;;;18.00;;
7215;SDS011;3649;48.798;9.798;2022-12-20T08:11:41;21.50;;;16.73;;
7215;SDS011;3649;48.798;9.798;2022-12-20T08:14:10;25.50;;;16.10;;
7215;SDS011;3649;48.798;9.798;2022-12-20T08:16:37;27.47;;;18.43;;
7215;SDS011;3649;48.798;9.798;2022-12-20T08:19:04;51.33;;;30.17;;
7215;SDS011;3649;48.798;9.798;2022-12-20T08:21:31;118.97;;;54.97;;
7215;SDS011;3649;48.798;9.798;2022-12-20T08:23:58;82.73;;;41.70;;
7215;SDS011;3649;48.798;9.798;2022-12-20T08:26:25;59.63;;;30.60;;
7215;SDS011;3649;48.798;9.798;2022-12-20T08:28:53;43.83;;;24.87;;
7215;SDS011;3649;48.798;9.798;2022-12-20T08:31:20;43.57;;;25.17;;
7215;SDS011;3649;48.798;9.798;2022-12-20T08:33:47;38.50;;;23.23;;
7215;SDS011;3649;48.798;9.798;2022-12-20T08:36:14;38.30;;;21.53;;
7215;SDS011;3649;48.798;9.798;2022-12-20T08:38:41;37.87;;;18.87;;
7215;SDS011;3649;48.798;9.798;2022-12-20T08:41:10;34.20;;;19.00;;
7215;SDS011;3649;48.798;9.798;2022-12-20T08:43:39;32.07;;;18.57;;
7215;SDS011;3649;48.798;9.798;2022-12-20T08:46:06;32.47;;;21.30;;
7215;SDS011;3649;48.798;9.798;2022-12-20T08:48:34;31.53;;;20.10;;
7215;SDS011;3649;48.798;9.798;2022-12-20T08:51:03;30.00;;;19.00;;
7215;SDS011;3649;48.798;9.798;2022-12-20T08:53:32;37.13;;;19.57;;
7215;SDS011;3649;48.798;9.798;2022-12-20T08:58:31;28.27;;;18.77;;
7215;SDS011;3649;48.798;9.798;2022-12-20T09:01:02;26.80;;;17.83;;
7215;SDS011;3649;48.798;9.798;2022-12-20T09:03:32;22.60;;;16.43;;
7215;SDS011;3649;48.798;9.798;2022-12-20T09:06:00;21.37;;;15.93;;
7215;SDS011;3649;48.798;9.798;2022-12-20T09:08:34;26.03;;;17.67;;
7215;SDS011;3649;48.798;9.798;2022-12-20T09:11:06;27.80;;;17.90;;
7215;SDS011;3649;48.798;9.798;2022-12-20T09:13:35;27.07;;;17.40;;
7215;SDS011;3649;48.798;9.798;2022-12-20T09:16:09;26.87;;;17.90;;
7215;SDS011;3649;48.798;9.798;2022-12-20T09:18:37;27.40;;;18.07;;
7215;SDS011;3649;48.798;9.798;2022-12-20T09:21:06;25.33;;;16.70;;
7215;SDS011;3649;48.798;9.798;2022-12-20T09:23:34;33.53;;;18.40;;
7215;SDS011;3649;48.798;9.798;2022-12-20T09:26:06;23.93;;;17.70;;
7215;SDS011;3649;48.798;9.798;2022-12-20T09:28:36;32.17;;;20.30;;
7215;SDS011;3649;48.798;9.798;2022-12-20T09:31:04;35.67;;;22.80;;
7215;SDS011;3649;48.798;9.798;2022-12-20T09:33:33;35.17;;;23.43;;
7215;SDS011;3649;48.798;9.798;2022-12-20T09:36:00;35.50;;;24.40;;
7215;SDS011;3649;48.798;9.798;2022-12-20T09:38:28;33.43;;;23.33;;
7215;SDS011;3649;48.798;9.798;2022-12-20T09:40:58;36.07;;;23.87;;
7215;SDS011;3649;48.798;9.798;2022-12-20T09:43:28;37.83;;;25.33;;
7215;SDS011;3649;48.798;9.798;2022-12-20T09:45:56;37.17;;;24.83;;
7215;SDS011;3649;48.798;9.798;2022-12-20T09:48:32;38.50;;;23.87;;
7215;SDS011;3649;48.798;9.798;2022-12-20T09:53:49;39.13;;;23.87;;
7215;SDS011;3649;48.798;9.798;2022-12-20T09:56:32;38.63;;;24.37;;
7215;SDS011;3649;48.798;9.798;2022-12-20T09:59:10;33.40;;;22.47;;
7215;SDS011;3649;48.798;9.798;2022-12-20T10:01:39;29.07;;;21.87;;
7215;SDS011;3649;48.798;9.798;2022-12-20T10:15:21;24.20;;;16.90;;
7215;SDS011;3649;48.798;9.798;2022-12-20T10:23:18;25.67;;;16.37;;
7215;SDS011;3649;48.798;9.798;2022-12-20T10:25:59;24.47;;;16.63;;
7215;SDS011;3649;48.798;9.798;2022-12-20T10:28:32;24.50;;;17.47;;
7215;SDS011;3649;48.798;9.798;2022-12-20T10:31:00;27.77;;;17.30;;
7215;SDS011;3649;48.798;9.798;2022-12-20T10:33:32;23.80;;;15.93;;
7215;SDS011;3649;48.798;9.798;2022-12-20T10:38:48;22.33;;;15.83;;
7215;SDS011;3649;48.798;9.798;2022-12-20T10:41:21;22.60;;;14.37;;
7215;SDS011;3649;48.798;9.798;2022-12-20T10:44:03;22.50;;;14.73;;
7215;SDS011;3649;48.798;9.798;2022-12-20T10:46:43;22.13;;;15.33;;
7215;SDS011;3649;48.798;9.798;2022-12-20T10:49:30;23.30;;;15.53;;
7215;SDS011;3649;48.798;9.798;2022-12-20T10:54:34;23.73;;;15.60;;
7215;SDS011;3649;48.798;9.798;2022-12-20T10:57:11;28.17;;;16.60;;
7215;SDS011;3649;48.798;9.798;2022-12-20T10:59:41;26.50;;;16.80;;
7215;SDS011;3649;48.798;9.798;2022-12-20T11:02:26;22.93;;;17.63;;
7215;SDS011;3649;48.798;9.798;2022-12-20T11:07:39;22.00;;;16.23;;
7215;SDS011;3649;48.798;9.798;2022-12-20T11:13:43;21.40;;;16.50;;
7215;SDS011;3649;48.798;9.798;2022-12-20T11:22:16;25.97;;;18.03;;
7215;SDS011;3649;48.798;9.798;2022-12-20T11:24:59;26.33;;;17.50;;
7215;SDS011;3649;48.798;9.798;2022-12-20T11:30:26;20.73;;;14.27;;
7215;SDS011;3649;48.798;9.798;2022-12-20T11:52:19;23.50;;;17.20;;
7215;SDS011;3649;48.798;9.798;2022-12-20T11:54:57;23.90;;;17.67;;
7215;SDS011;3649;48.798;9.798;2022-12-20T12:00:41;22.80;;;16.33;;
7215;SDS011;3649;48.798;9.798;2022-12-20T12:03:20;26.77;;;17.73;;
7215;SDS011;3649;48.798;9.798;2022-12-20T12:05:56;26.90;;;17.37;;
7215;SDS011;3649;48.798;9.798;2022-12-20T12:11:12;26.57;;;18.07;;
7215;SDS011;3649;48.798;9.798;2022-12-20T12:14:03;23.17;;;16.27;;
7215;SDS011;3649;48.798;9.798;2022-12-20T12:16:36;21.77;;;16.43;;
7215;SDS011;3649;48.798;9.798;2022-12-20T12:19:10;23.43;;;16.63;;
7215;SDS011;3649;48.798;9.798;2022-12-20T12:21:39;31.70;;;17.67;;
7215;SDS011;3649;48.798;9.798;2022-12-20T12:24:30;25.10;;;16.87;;
7215;SDS011;3649;48.798;9.798;2022-12-20T12:27:41;24.93;;;18.33;;
7215;SDS011;3649;48.798;9.798;2022-12-20T12:30:01;24.03;;;17.73;;
7215;SDS011;3649;48.798;9.798;2022-12-20T12:32:36;25.87;;;17.47;;
7215;SDS011;3649;48.798;9.798;2022-12-20T12:40:54;31.07;;;20.83;;
7215;SDS011;3649;48.798;9.798;2022-12-20T12:46:47;26.63;;;18.47;;
7215;SDS011;3649;48.798;9.798;2022-12-20T12:49:21;23.23;;;17.07;;
7215;SDS011;3649;48.798;9.798;2022-12-20T12:51:53;28.47;;;17.03;;
7215;SDS011;3649;48.798;9.798;2022-12-20T12:54:27;26.57;;;16.87;;
7215;SDS011;3649;48.798;9.798;2022-12-20T12:57:11;30.33;;;19.20;;
7215;SDS011;3649;48.798;9.798;2022-12-20T12:59:44;31.33;;;19.87;;
7215;SDS011;3649;48.798;9.798;2022-12-20T13:05:28;31.03;;;20.23;;
7215;SDS011;3649;48.798;9.798;2022-12-20T13:07:51;28.27;;;20.83;;
7215;SDS011;3649;48.798;9.798;2022-12-20T13:20:27;31.57;;;19.60;;
7215;SDS011;3649;48.798;9.798;2022-12-20T13:25:39;31.73;;;21.33;;
7215;SDS011;3649;48.798;9.798;2022-12-20T13:28:52;33.43;;;22.43;;
7215;SDS011;3649;48.798;9.798;2022-12-20T13:33:46;28.33;;;22.10;;
7215;SDS011;3649;48.798;9.798;2022-12-20T13:46:50;26.60;;;20.57;;
7215;SDS011;3649;48.798;9.798;2022-12-20T13:49:39;36.53;;;23.57;;
7215;SDS011;3649;48.798;9.798;2022-12-20T13:54:41;31.47;;;21.87;;
7215;SDS011;3649;48.798;9.798;2022-12-20T13:57:15;32.80;;;21.37;;
7215;SDS011;3649;48.798;9.798;2022-12-20T13:59:47;32.30;;;21.83;;
7215;SDS011;3649;48.798;9.798;2022-12-20T14:02:22;30.97;;;20.53;;
7215;SDS011;3649;48.798;9.798;2022-12-20T14:04:57;30.10;;;20.07;;
7215;SDS011;3649;48.798;9.798;2022-12-20T14:07:27;26.50;;;19.40;;
7215;SDS011;3649;48.798;9.798;2022-12-20T14:09:57;27.40;;;19.77;;
7215;SDS011;3649;48.798;9.798;2022-12-20T14:12:26;26.83;;;18.80;;
7215;SDS011;3649;48.798;9.798;2022-12-20T14:15:02;30.50;;;20.10;;
7215;SDS011;3649;48.798;9.798;2022-12-20T14:17:45;30.00;;;19.83;;
7215;SDS011;3649;48.798;9.798;2022-12-20T14:20:13;29.10;;;20.87;;
7215;SDS011;3649;48.798;9.798;2022-12-20T14:25:12;30.53;;;22.60;;
7215;SDS011;3649;48.798;9.798;2022-12-20T14:27:43;35.70;;;24.23;;
7215;SDS011;3649;48.798;9.798;2022-12-20T14:30:24;36.23;;;23.77;;
7215;SDS011;3649;48.798;9.798;2022-12-20T14:32:54;32.67;;;24.47;;
7215;SDS011;3649;48.798;9.798;2022-12-20T14:35:22;40.80;;;25.50;;
7215;SDS011;3649;48.798;9.798;2022-12-20T14:37:56;39.70;;;26.70;;
7215;SDS011;3649;48.798;9.798;2022-12-20T14:40:26;39.57;;;25.77;;
7215;SDS011;3649;48.798;9.798;2022-12-20T14:42:53;40.37;;;26.33;;
7215;SDS011;3649;48.798;9.798;2022-12-20T14:45:22;44.57;;;28.10;;
7215;SDS011;3649;48.798;9.798;2022-12-20T14:48:13;44.53;;;30.40;;
7215;SDS011;3649;48.798;9.798;2022-12-20T14:50:49;46.40;;;29.63;;
7215;SDS011;3649;48.798;9.798;2022-12-20T14:53:19;41.83;;;30.63;;
7215;SDS011;3649;48.798;9.798;2022-12-20T14:55:50;48.77;;;30.67;;
7215;SDS011;3649;48.798;9.798;2022-12-20T14:58:22;49.37;;;30.33;;
7215;SDS011;3649;48.798;9.798;2022-12-20T15:03:27;52.70;;;31.77;;
7215;SDS011;3649;48.798;9.798;2022-12-20T15:05:55;55.67;;;32.03;;
7215;SDS011;3649;48.798;9.798;2022-12-20T15:13:26;96.90;;;40.43;;
7215;SDS011;3649;48.798;9.798;2022-12-20T15:15:57;78.10;;;37.53;;
7215;SDS011;3649;48.798;9.798;2022-12-20T15:18:25;51.67;;;29.37;;
7215;SDS011;3649;48.798;9.798;2022-12-20T15:21:00;46.90;;;27.57;;
7215;SDS011;3649;48.798;9.798;2022-12-20T15:23:31;45.83;;;27.70;;
7215;SDS011;3649;48.798;9.798;2022-12-20T15:25:59;39.13;;;25.37;;
7215;SDS011;3649;48.798;9.798;2022-12-20T15:28:26;59.17;;;29.03;;
7215;SDS011;3649;48.798;9.798;2022-12-20T15:30:53;40.50;;;23.37;;
7215;SDS011;3649;48.798;9.798;2022-12-20T15:33:27;33.57;;;22.03;;
7215;SDS011;3649;48.798;9.798;2022-12-20T15:35:57;39.03;;;25.07;;
7215;SDS011;3649;48.798;9.798;2022-12-20T15:38:24;39.77;;;26.87;;
7215;SDS011;3649;48.798;9.798;2022-12-20T15:41:21;49.33;;;30.23;;
7215;SDS011;3649;48.798;9.798;2022-12-20T15:43:50;46.73;;;29.87;;
7215;SDS011;3649;48.798;9.798;2022-12-20T15:46:20;46.20;;;29.27;;
7215;SDS011;3649;48.798;9.798;2022-12-20T15:48:47;46.77;;;29.37;;
7215;SDS011;3649;48.798;9.798;2022-12-20T15:51:15;52.90;;;29.60;;
7215;SDS011;3649;48.798;9.798;2022-12-20T15:53:53;58.63;;;31.87;;
7215;SDS011;3649;48.798;9.798;2022-12-20T15:56:20;53.03;;;29.20;;
7215;SDS011;3649;48.798;9.798;2022-12-20T15:58:48;46.13;;;26.83;;
7215;SDS011;3649;48.798;9.798;2022-12-20T16:01:25;47.10;;;29.57;;
7215;SDS011;3649;48.798;9.798;2022-12-20T16:04:01;45.93;;;29.33;;
7215;SDS011;3649;48.798;9.798;2022-12-20T16:06:28;52.97;;;28.97;;
7215;SDS011;3649;48.798;9.798;2022-12-20T16:08:55;48.83;;;28.83;;
7215;SDS011;3649;48.798;9.798;2022-12-20T16:11:23;49.70;;;29.63;;
7215;SDS011;3649;48.798;9.798;2022-12-20T16:13:53;56.23;;;30.43;;
7215;SDS011;3649;48.798;9.798;2022-12-20T16:16:25;50.00;;;30.57;;
7215;SDS011;3649;48.798;9.798;2022-12-20T16:18:54;54.30;;;32.87;;
7215;SDS011;3649;48.798;9.798;2022-12-20T16:21:22;50.83;;;29.47;;
7215;SDS011;3649;48.798;9.798;2022-12-20T16:23:55;52.77;;;29.80;;
7215;SDS011;3649;48.798;9.798;2022-12-20T16:26:23;43.83;;;27.93;;
7215;SDS011;3649;48.798;9.798;2022-12-20T16:28:52;37.53;;;24.90;;
7215;SDS011;3649;48.798;9.798;2022-12-20T16:31:22;38.17;;;24.63;;
7215;SDS011;3649;48.798;9.798;2022-12-20T16:33:51;32.90;;;21.63;;
7215;SDS011;3649;48.798;9.798;2022-12-20T16:36:19;37.60;;;23.87;;
7215;SDS011;3649;48.798;9.798;2022-12-20T16:38:47;32.17;;;22.17;;
7215;SDS011;3649;48.798;9.798;2022-12-20T16:43:42;39.37;;;21.77;;
7215;SDS011;3649;48.798;9.798;2022-12-20T16:46:11;37.30;;;24.43;;
7215;SDS011;3649;48.798;9.798;2022-12-20T16:48:39;38.80;;;24.30;;
7215;SDS011;3649;48.798;9.798;2022-12-20T16:51:20;42.23;;;26.13;;
7215;SDS011;3649;48.798;9.798;2022-12-20T16:53:48;39.17;;;26.83;;
7215;SDS011;3649;48.798;9.798;2022-12-20T16:56:34;45.13;;;28.80;;
7215;SDS011;3649;48.798;9.798;2022-12-20T16:59:01;42.83;;;28.07;;
7215;SDS011;3649;48.798;9.798;2022-12-20T17:01:47;37.40;;;26.77;;
7215;SDS011;3649;48.798;9.798;2022-12-20T17:04:17;41.17;;;27.27;;
7215;SDS011;3649;48.798;9.798;2022-12-20T17:06:45;40.80;;;24.10;;
7215;SDS011;3649;48.798;9.798;2022-12-20T17:09:12;34.63;;;22.90;;
7215;SDS011;3649;48.798;9.798;2022-12-20T17:11:43;24.37;;;18.37;;
7215;SDS011;3649;48.798;9.798;2022-12-20T17:14:10;29.43;;;18.40;;
7215;SDS011;3649;48.798;9.798;2022-12-20T17:16:38;27.90;;;18.67;;
7215;SDS011;3649;48.798;9.798;2022-12-20T17:19:06;27.83;;;18.03;;
7215;SDS011;3649;48.798;9.798;2022-12-20T17:21:39;28.90;;;18.07;;
7215;SDS011;3649;48.798;9.798;2022-12-20T17:24:26;29.27;;;20.23;;
7215;SDS011;3649;48.798;9.798;2022-12-20T17:26:52;32.93;;;21.17;;
7215;SDS011;3649;48.798;9.798;2022-12-20T17:29:20;31.67;;;21.23;;
7215;SDS011;3649;48.798;9.798;2022-12-20T17:31:47;28.93;;;21.60;;
7215;SDS011;3649;48.798;9.798;2022-12-20T17:36:49;27.80;;;20.53;;
7215;SDS011;3649;48.798;9.798;2022-12-20T17:39:17;27.87;;;17.93;;
7215;SDS011;3649;48.798;9.798;2022-12-20T17:41:44;28.30;;;18.80;;